This is the latest recevied weather packets stored in our database for station/object N7WGJ. If no packets are shown the sender has not sent any weather packets the latest 10 day(s).
| Time | Temp. | Humidity | Pressure | Rain* | Wind** | Luminosity | Snow |
|---|---|---|---|---|---|---|---|
| 1777581686 | 19.44° C | 63% | 1019.1 hPa | 0 mm | - | - | - |
| 1777581086 | 19.44° C | 64% | 1019.2 hPa | 0 mm | - | - | - |
| 1777580489 | 19.44° C | 63% | 1019.3 hPa | 0 mm | - | - | - |
| 1777579886 | 18.89° C | 64% | 1019.4 hPa | 0 mm | - | - | - |
| 1777579307 | 18.89° C | 65% | 1019.6 hPa | 0 mm | - | - | - |
| 1777578700 | 18.33° C | 67% | 1019.7 hPa | 0 mm | - | - | - |
| 1777578103 | 18.33° C | 67% | 1019.8 hPa | 0 mm | - | - | - |
| 1777577501 | 17.78° C | 68% | 1020 hPa | 0 mm | - | - | - |
| 1777576901 | 17.22° C | 68% | 1020 hPa | 0 mm | - | - | - |
| 1777576303 | 17.78° C | 66% | 1020.2 hPa | 0 mm | - | - | - |
| 1777575700 | 17.78° C | 66% | 1020.3 hPa | 0 mm | - | - | - |
| 1777575103 | 17.78° C | 67% | 1020.4 hPa | 0 mm | - | - | - |
| 1777573885 | 16.67° C | 71% | 1020.6 hPa | 0 mm | - | - | - |
| 1777573302 | 17.22° C | 71% | 1020.7 hPa | 0 mm | - | - | - |
| 1777572699 | 16.67° C | 71% | 1020.7 hPa | 0 mm | - | - | - |
| 1777572100 | 16.67° C | 71% | 1020.8 hPa | 0 mm | - | - | - |
| 1777571493 | 16.67° C | 70% | 1020.9 hPa | 0 mm | - | - | - |
| 1777570894 | 16.67° C | 72% | 1020.9 hPa | 0 mm | - | - | - |
| 1777570294 | 15.56° C | 75% | 1020.9 hPa | 0 mm | - | - | - |
| 1777569687 | 15° C | 74% | 1021.1 hPa | 0 mm | - | - | - |
| 1777569087 | 15° C | 74% | 1021.2 hPa | 0 mm | - | - | - |
| 1777568506 | 14.44° C | 77% | 1021.3 hPa | 0 mm | - | - | - |
| 1777567892 | 13.89° C | 79% | 1021.3 hPa | 0 mm | - | - | - |
| 1777567288 | 13.33° C | 80% | 1021.4 hPa | 0 mm | - | - | - |
| 1777566691 | 13.33° C | 79% | 1021.5 hPa | 0 mm | - | - | - |
* Rain latest hour (hover to see other rain measurements)
** Current wind speed in m/s (hover to see current wind gust speed)